Time;durP1;ratioP1;P1;durP2;ratioP2;P2;SDS_P1;SDS_P2;PMS_P1;PMS_P2;Temp;Humidity;BMP_temperature;BMP_pressure;BME280_temperature;BME280_humidity;BME280_pressure;Samples;Min_cycle;Max_cycle;Signal;HPM_P1;HPM_P2
2022/10/05 00:02:21;;;;;;;5.68;4.40;;;;;;;10.34;60.16;96372.88;4990659;28;20049;-86
2022/10/05 00:04:47;;;;;;;7.22;4.53;;;;;;;10.32;59.86;96374.88;4989277;28;20026;-87
2022/10/05 00:07:16;;;;;;;6.00;4.32;;;;;;;10.25;60.41;96372.81;5008350;28;20026;-86
2022/10/05 00:09:43;;;;;;;7.18;4.78;;;;;;;10.23;60.42;96379.31;4989679;28;20116;-87
2022/10/05 00:12:19;;;;;;;5.43;4.30;;;;;;;10.16;60.75;96375.56;5007475;28;20030;-87
2022/10/05 00:14:45;;;;;;;6.90;4.40;;;;;;;10.11;61.07;96379.53;4990175;28;20461;-87
2022/10/05 00:17:23;;;;;;;6.40;4.50;;;;;;;10.10;61.21;96371.66;4973275;28;20033;-86
2022/10/05 00:19:52;;;;;;;7.72;4.65;;;;;;;9.93;62.26;96370.63;4992411;28;20076;-87
2022/10/05 00:22:29;;;;;;;7.63;4.45;;;;;;;10.05;61.85;96373.94;4990399;28;20021;-87
2022/10/05 00:24:56;;;;;;;7.50;4.55;;;;;;;9.96;61.98;96376.50;4990049;28;20048;-87
2022/10/05 00:27:32;;;;;;;7.72;4.97;;;;;;;9.98;60.47;96374.53;4973858;28;20524;-87
2022/10/05 00:29:59;;;;;;;11.23;5.10;;;;;;;9.93;60.77;96376.00;4989470;28;20021;-86
2022/10/05 00:32:24;;;;;;;5.97;4.40;;;;;;;9.80;61.14;96373.66;4957731;28;20033;-87
2022/10/05 00:34:50;;;;;;;7.05;5.00;;;;;;;9.68;61.25;96373.84;4972821;28;20417;-87
2022/10/05 00:37:16;;;;;;;8.68;5.25;;;;;;;9.70;61.79;96379.91;4989966;28;20129;-87
2022/10/05 00:39:41;;;;;;;9.00;4.80;;;;;;;9.76;61.92;96371.28;4972991;28;20537;-87
2022/10/05 00:42:22;;;;;;;11.38;6.20;;;;;;;9.74;62.21;96381.28;4989659;28;20523;-87
2022/10/05 00:44:58;;;;;;;7.47;5.30;;;;;;;9.77;61.32;96377.47;4973854;28;20045;-86
2022/10/05 00:47:29;;;;;;;7.35;5.47;;;;;;;9.76;61.25;96378.47;4989979;28;20033;-86
2022/10/05 00:50:03;;;;;;;8.07;4.82;;;;;;;9.72;61.70;96383.25;5007198;28;20034;-86
2022/10/05 00:52:45;;;;;;;8.38;4.93;;;;;;;9.66;62.14;96383.84;5006680;28;20088;-86
2022/10/05 00:55:32;;;;;;;6.82;4.90;;;;;;;9.66;62.37;96385.72;4974481;28;20026;-85
2022/10/05 00:58:20;;;;;;;7.03;5.00;;;;;;;9.62;62.40;96387.84;5006609;28;20501;-86
2022/10/05 01:00:54;;;;;;;8.23;5.25;;;;;;;9.51;62.67;96397.72;4975105;28;20029;-86
2022/10/05 01:03:46;;;;;;;9.73;5.30;;;;;;;9.58;63.13;96394.47;4974295;28;20427;-86
2022/10/05 01:06:21;;;;;;;6.63;5.55;;;;;;;9.57;63.19;96392.78;4962519;28;20038;-86
2022/10/05 01:09:25;;;;;;;8.98;4.90;;;;;;;9.55;62.80;96400.09;4973800;28;20139;-87
2022/10/05 01:12:07;;;;;;;8.25;5.97;;;;;;;9.56;62.47;96391.09;4993356;28;20125;-86
2022/10/05 01:14:45;;;;;;;8.18;5.30;;;;;;;9.52;62.73;96394.06;4978421;28;20373;-87
2022/10/05 01:17:17;;;;;;;8.35;5.47;;;;;;;9.38;63.74;96394.56;5010660;28;20117;-86
2022/10/05 01:20:04;;;;;;;8.32;4.88;;;;;;;9.49;63.13;96407.75;4978007;28;20088;-86
2022/10/05 01:22:48;;;;;;;8.10;5.53;;;;;;;9.51;63.47;96405.75;5010063;28;20040;-86
2022/10/05 01:25:15;;;;;;;9.13;5.43;;;;;;;9.46;63.23;96409.88;5010883;28;20195;-86
2022/10/05 01:27:45;;;;;;;9.82;4.93;;;;;;;9.46;62.43;96410.69;5010430;28;20033;-87
2022/10/05 01:30:19;;;;;;;11.00;5.38;;;;;;;9.41;62.80;96413.00;4993285;28;20026;-86
2022/10/05 01:33:24;;;;;;;8.82;5.40;;;;;;;9.36;62.18;96413.44;4993165;28;20076;-86
2022/10/05 01:36:09;;;;;;;12.25;5.88;;;;;;;9.32;61.12;96414.69;5009749;28;20026;-87
2022/10/05 01:38:49;;;;;;;7.13;5.07;;;;;;;9.28;60.46;96419.50;4994744;28;20105;-86
2022/10/05 01:41:18;;;;;;;8.32;4.97;;;;;;;9.26;60.41;96426.00;4977062;28;20105;-86
2022/10/05 01:43:55;;;;;;;6.85;5.32;;;;;;;9.19;61.19;96432.91;5010069;28;20046;-86
2022/10/05 01:46:49;;;;;;;7.85;5.60;;;;;;;9.21;61.94;96437.13;4992920;28;20491;-86
2022/10/05 01:49:51;;;;;;;9.60;5.22;;;;;;;9.14;62.12;96441.38;4993792;28;20362;-86
2022/10/05 01:52:54;;;;;;;8.52;4.93;;;;;;;9.11;62.27;96447.00;5009810;28;20040;-86
2022/10/05 01:55:29;;;;;;;13.17;5.57;;;;;;;9.14;61.94;96444.88;4995446;28;20260;-86
2022/10/05 01:58:27;;;;;;;9.68;5.40;;;;;;;9.10;63.06;96445.31;4991422;28;20905;-87
2022/10/05 02:01:14;;;;;;;9.05;5.72;;;;;;;9.09;63.59;96451.66;5010275;28;20500;-86
2022/10/05 02:03:56;;;;;;;10.63;5.22;;;;;;;9.08;63.28;96439.25;5010379;28;20042;-86
2022/10/05 02:06:23;;;;;;;7.93;5.40;;;;;;;9.11;63.18;96441.63;4977128;28;20026;-87
2022/10/05 02:08:54;;;;;;;8.52;5.75;;;;;;;9.09;63.81;96448.97;4976608;28;20057;-87
2022/10/05 02:11:19;;;;;;;7.18;4.90;;;;;;;9.05;64.07;96448.41;4975744;28;20316;-87
2022/10/05 02:13:50;;;;;;;8.63;5.50;;;;;;;9.00;64.18;96456.03;4992245;28;20037;-86
2022/10/05 02:16:21;;;;;;;13.20;5.72;;;;;;;8.92;64.46;96453.19;4992541;28;20530;-87
2022/10/05 02:19:13;;;;;;;8.43;6.15;;;;;;;8.94;64.56;96459.25;4959862;28;20539;-86
2022/10/05 02:21:38;;;;;;;19.67;6.38;;;;;;;8.99;64.33;96459.69;4998338;28;20041;-87
2022/10/05 02:24:07;;;;;;;9.57;5.40;;;;;;;9.03;64.49;96450.38;4991368;28;20157;-86
2022/10/05 02:26:34;;;;;;;7.47;5.13;;;;;;;9.05;64.40;96455.59;4959391;28;20025;-87
2022/10/05 02:29:01;;;;;;;7.63;5.15;;;;;;;9.04;64.41;96454.78;4975668;28;20033;-86
2022/10/05 02:31:30;;;;;;;9.70;5.50;;;;;;;9.05;63.83;96450.25;4959070;28;20032;-87
2022/10/05 02:34:23;;;;;;;8.23;5.45;;;;;;;8.90;64.88;96456.03;4959983;28;20021;-86
2022/10/05 02:37:36;;;;;;;6.35;4.70;;;;;;;8.84;64.85;96462.78;5008060;28;20463;-86
2022/10/05 02:40:05;;;;;;;9.18;5.00;;;;;;;8.70;65.96;96456.03;4935770;28;20042;-86
2022/10/05 02:42:30;;;;;;;8.60;4.72;;;;;;;8.88;65.23;96453.50;4992105;28;20030;-87
2022/10/05 02:45:15;;;;;;;9.15;4.55;;;;;;;8.88;65.38;96458.00;5008770;28;20082;-86
2022/10/05 02:48:04;;;;;;;6.30;4.25;;;;;;;8.98;64.70;96445.47;4992148;28;20022;-86
2022/10/05 02:50:38;;;;;;;9.85;4.60;;;;;;;8.98;64.80;96447.31;4960894;28;20052;-86
2022/10/05 02:53:13;;;;;;;6.20;4.10;;;;;;;9.02;64.80;96454.06;4992106;28;20061;-86
2022/10/05 02:56:02;;;;;;;7.40;4.25;;;;;;;8.91;64.74;96460.41;4992019;28;20549;-86
2022/10/05 02:58:28;;;;;;;10.60;4.60;;;;;;;8.92;65.23;96464.75;4992112;28;20026;-85
2022/10/05 03:00:59;;;;;;;7.72;5.30;;;;;;;8.95;63.62;96467.16;4975348;28;20026;-87
2022/10/05 03:03:35;;;;;;;10.52;4.90;;;;;;;8.94;63.67;96468.16;4990756;28;20032;-86
2022/10/05 03:06:02;;;;;;;9.93;4.93;;;;;;;8.92;63.35;96459.41;4990839;28;20061;-86
2022/10/05 03:08:44;;;;;;;10.10;4.78;;;;;;;8.88;63.44;96466.03;4975169;28;20030;-86
2022/10/05 03:11:31;;;;;;;6.90;4.88;;;;;;;8.85;62.60;96474.34;4974894;28;20030;-86
2022/10/05 03:14:17;;;;;;;7.82;5.13;;;;;;;8.80;62.14;96466.75;4993651;28;20021;-87
2022/10/05 03:17:05;;;;;;;12.10;5.28;;;;;;;8.76;61.91;96470.66;5008141;28;20041;-86
2022/10/05 03:19:43;;;;;;;8.00;5.38;;;;;;;8.74;62.41;96467.28;4976757;28;20029;-86
2022/10/05 03:22:26;;;;;;;10.35;5.32;;;;;;;8.67;63.14;96469.69;5009098;28;20080;-85
2022/10/05 03:25:11;;;;;;;8.13;4.70;;;;;;;8.66;64.28;96473.34;5008168;28;20030;-86
2022/10/05 03:27:57;;;;;;;7.00;3.75;;;;;;;8.70;65.05;96484.59;4990516;28;20088;-88
2022/10/05 03:30:24;;;;;;;6.45;4.40;;;;;;;8.62;65.58;96482.63;4992487;28;20109;-86
2022/10/05 03:33:05;;;;;;;6.05;4.45;;;;;;;8.63;65.42;96495.88;4974457;28;20030;-87
2022/10/05 03:35:36;;;;;;;8.25;4.70;;;;;;;8.59;65.52;96501.63;4975405;28;20076;-87
2022/10/05 03:38:31;;;;;;;11.52;5.30;;;;;;;8.66;65.17;96500.06;4990616;28;20025;-87
2022/10/05 03:41:07;;;;;;;8.40;5.63;;;;;;;8.59;65.64;96499.78;4998351;28;20114;-87
2022/10/05 03:43:51;;;;;;;11.15;5.50;;;;;;;8.61;65.17;96500.50;4975350;28;20046;-87
2022/10/05 03:46:24;;;;;;;10.75;4.88;;;;;;;8.57;65.12;96511.59;4989938;28;20033;-88
2022/10/05 03:48:55;;;;;;;14.40;5.70;;;;;;;8.67;64.32;96504.47;4990101;28;20080;-87
2022/10/05 03:51:25;;;;;;;9.27;6.13;;;;;;;8.68;63.20;96515.97;4992027;28;20485;-86
2022/10/05 03:54:23;;;;;;;11.57;5.68;;;;;;;8.69;62.18;96517.69;4974505;28;20040;-85
2022/10/05 03:56:54;;;;;;;13.40;6.25;;;;;;;8.58;62.44;96515.97;4990605;28;20033;-86
2022/10/05 03:59:41;;;;;;;13.75;5.82;;;;;;;8.48;62.97;96516.75;4973735;28;20076;-86
2022/10/05 04:02:30;;;;;;;18.13;6.22;;;;;;;8.46;62.99;96515.22;4976308;28;20022;-85
2022/10/05 04:05:16;;;;;;;8.73;5.47;;;;;;;8.43;63.26;96515.50;4975610;28;20436;-85
2022/10/05 04:08:08;;;;;;;8.88;6.30;;;;;;;8.40;62.84;96521.94;4973514;28;20052;-86
2022/10/05 04:10:47;;;;;;;12.27;5.82;;;;;;;8.34;63.35;96515.31;4959805;28;20068;-85
2022/10/05 04:13:30;;;;;;;17.80;6.18;;;;;;;8.29;63.87;96523.75;4990365;28;20072;-85
2022/10/05 04:16:03;;;;;;;11.50;5.75;;;;;;;8.21;64.09;96526.25;5008390;28;20080;-86
2022/10/05 04:18:37;;;;;;;14.07;6.95;;;;;;;8.15;63.83;96532.13;4974827;28;20050;-85
2022/10/05 04:21:10;;;;;;;11.40;6.07;;;;;;;8.03;64.89;96524.22;4973804;28;20034;-86
2022/10/05 04:23:43;;;;;;;;;;;;;;;8.02;64.86;96532.38;4974252;28;20092;-88
2022/10/05 04:26:12;;;;;;;10.20;5.70;;;;;;;7.99;65.53;96532.63;4989620;28;19917;-88
2022/10/05 04:28:58;;;;;;;9.48;6.43;;;;;;;7.97;65.80;96538.13;4973059;28;20053;-86
2022/10/05 04:31:56;;;;;;;11.30;6.18;;;;;;;7.97;65.42;96535.44;4990018;28;20511;-85
2022/10/05 04:34:38;;;;;;;11.30;6.50;;;;;;;7.99;65.30;96540.66;4978240;28;20034;-85
2022/10/05 04:37:06;;;;;;;14.52;6.20;;;;;;;7.90;65.59;96545.81;4988819;28;20421;-86
2022/10/05 04:39:36;;;;;;;10.93;6.30;;;;;;;7.87;65.93;96548.75;4973860;28;20488;-85
2022/10/05 04:42:26;;;;;;;11.85;6.25;;;;;;;7.84;65.79;96556.16;4988627;28;20048;-86
2022/10/05 04:45:27;;;;;;;11.00;6.32;;;;;;;7.89;64.66;96564.63;4989108;28;20137;-86
2022/10/05 04:48:02;;;;;;;17.58;7.78;;;;;;;7.96;63.51;96565.81;4991159;28;20090;-85
2022/10/05 04:50:37;;;;;;;11.15;6.97;;;;;;;8.02;63.81;96559.09;5006779;28;20022;-86
2022/10/05 04:53:15;;;;;;;14.13;7.30;;;;;;;8.06;63.56;96562.34;4974977;28;20053;-85
2022/10/05 04:56:11;;;;;;;13.50;6.95;;;;;;;7.99;64.29;96564.69;4989375;28;20026;-86
2022/10/05 04:58:40;;;;;;;17.88;8.40;;;;;;;8.02;64.17;96567.09;4968272;28;20073;-85
2022/10/05 05:01:27;;;;;;;15.38;7.25;;;;;;;8.14;64.23;96570.53;4973137;28;20037;-89
2022/10/05 05:04:16;;;;;;;15.25;8.00;;;;;;;8.28;64.32;96564.84;5006027;28;20509;-87
2022/10/05 05:07:20;;;;;;;16.70;7.78;;;;;;;8.36;63.86;96560.63;4991550;28;20022;-85
2022/10/05 05:10:14;;;;;;;14.57;7.50;;;;;;;8.43;63.87;96559.09;4892474;29;20047;-85
2022/10/05 05:13:11;;;;;;;13.32;7.63;;;;;;;8.43;63.79;96556.41;4987682;28;20052;-87
2022/10/05 05:15:45;;;;;;;12.45;7.20;;;;;;;8.58;63.55;96558.75;4985197;28;20042;-88
2022/10/05 05:18:41;;;;;;;16.77;7.78;;;;;;;8.71;63.66;96570.06;4988839;28;20034;-86
2022/10/05 05:21:15;;;;;;;14.25;7.38;;;;;;;8.71;64.20;96559.34;5006565;28;20026;-86
2022/10/05 05:24:14;;;;;;;15.88;7.85;;;;;;;8.82;63.95;96561.06;4989270;28;20026;-85
2022/10/05 05:26:49;;;;;;;13.90;8.52;;;;;;;8.98;63.96;96575.75;4956795;28;20121;-86
2022/10/05 05:29:44;;;;;;;17.65;8.32;;;;;;;9.05;64.10;96568.84;5005726;28;20121;-85
2022/10/05 05:32:35;;;;;;;17.05;7.60;;;;;;;9.08;64.31;96578.41;4956564;28;20038;-87
2022/10/05 05:35:19;;;;;;;16.73;8.13;;;;;;;9.13;64.30;96585.06;4974947;28;20041;-87
2022/10/05 05:38:05;;;;;;;13.82;7.63;;;;;;;9.24;63.87;96586.75;5006127;28;20030;-85
2022/10/05 05:40:33;;;;;;;20.38;7.07;;;;;;;9.38;63.47;96592.69;4989843;28;20026;-87
2022/10/05 05:43:25;;;;;;;20.15;8.02;;;;;;;9.50;63.26;96586.19;4972316;28;20120;-86
2022/10/05 05:46:04;;;;;;;11.38;5.88;;;;;;;9.66;62.34;96589.28;4992304;28;20026;-86
2022/10/05 05:48:37;;;;;;;18.67;5.88;;;;;;;9.67;62.13;96591.81;4988892;28;20499;-86
2022/10/05 05:51:08;;;;;;;6.88;5.18;;;;;;;9.64;62.21;96597.47;4972025;28;20113;-88
2022/10/05 05:53:38;;;;;;;10.55;5.50;;;;;;;9.74;62.35;96602.78;4973270;28;20092;-87
2022/10/05 05:56:12;;;;;;;12.32;5.50;;;;;;;9.73;62.58;96595.75;4972106;28;20084;-87
2022/10/05 05:58:47;;;;;;;11.93;5.10;;;;;;;9.81;62.44;96605.75;4975263;28;20040;-88
2022/10/05 06:01:32;;;;;;;8.63;5.35;;;;;;;10.00;61.95;96603.03;4993764;28;20037;-88
2022/10/05 06:04:10;;;;;;;12.82;5.28;;;;;;;10.22;61.57;96594.81;4975388;28;20034;-87
2022/10/05 06:06:37;;;;;;;10.77;5.07;;;;;;;10.38;61.23;96596.88;4977617;28;20365;-87
2022/10/05 06:09:05;;;;;;;7.90;5.00;;;;;;;10.60;60.61;96597.50;4976163;28;20034;-86
2022/10/05 06:11:40;;;;;;;11.48;6.13;;;;;;;10.62;60.80;96600.91;4976428;28;20084;-86
2022/10/05 06:14:17;;;;;;;7.82;5.55;;;;;;;10.81;60.28;96609.81;4975956;28;20506;-86
2022/10/05 06:16:56;;;;;;;7.45;5.40;;;;;;;10.86;59.75;96619.13;4959542;28;20034;-87
2022/10/05 06:19:22;;;;;;;10.68;5.63;;;;;;;10.75;59.67;96616.66;4976918;28;20026;-86
2022/10/05 06:21:59;;;;;;;20.40;6.30;;;;;;;10.56;60.33;96620.28;4958805;28;20206;-86
2022/10/05 06:25:08;;;;;;;11.05;6.38;;;;;;;10.58;61.07;96620.94;4992889;28;20214;-87
2022/10/05 06:27:39;;;;;;;18.70;7.18;;;;;;;10.72;60.72;96633.88;4972999;28;20116;-87
2022/10/05 06:30:11;;;;;;;13.90;6.80;;;;;;;10.79;60.63;96631.44;5008861;28;20034;-87
2022/10/05 06:32:49;;;;;;;15.32;6.60;;;;;;;10.93;60.42;96640.00;5009699;28;20033;-87
2022/10/05 06:35:37;;;;;;;14.70;6.70;;;;;;;11.07;60.30;96644.03;5008903;28;20532;-86
2022/10/05 06:38:24;;;;;;;19.10;6.75;;;;;;;11.22;59.93;96655.09;5008771;28;20397;-87
2022/10/05 06:40:56;;;;;;;14.52;6.32;;;;;;;11.36;60.04;96645.69;5009818;28;20387;-86
2022/10/05 06:43:47;;;;;;;24.30;7.22;;;;;;;11.54;59.49;96652.91;4991297;28;20513;-87
2022/10/05 06:46:48;;;;;;;13.52;6.60;;;;;;;11.73;58.69;96654.59;4959902;28;20038;-87
2022/10/05 06:49:18;;;;;;;17.40;7.07;;;;;;;11.79;59.28;96663.88;4992127;28;20116;-87
2022/10/05 06:52:02;;;;;;;16.48;6.20;;;;;;;11.92;59.22;96661.66;4990895;28;20022;-87
2022/10/05 06:54:36;;;;;;;10.68;6.13;;;;;;;12.04;59.63;96661.41;5009927;28;20030;-87
2022/10/05 06:57:03;;;;;;;17.00;6.88;;;;;;;12.15;58.48;96674.63;5008330;28;20033;-87
2022/10/05 06:59:35;;;;;;;13.00;6.30;;;;;;;12.29;58.71;96664.28;4991109;28;20140;-87
2022/10/05 07:02:24;;;;;;;18.17;6.50;;;;;;;12.46;58.01;96655.34;4975529;28;20602;-88
2022/10/05 07:04:53;;;;;;;10.60;6.05;;;;;;;12.47;57.63;96648.97;4974729;28;20100;-87
2022/10/05 07:07:37;;;;;;;10.80;6.05;;;;;;;12.38;57.93;96644.50;5009467;28;20480;-87
2022/10/05 07:10:21;;;;;;;7.78;5.72;;;;;;;12.62;56.90;96651.06;4991142;28;20033;-89
2022/10/05 07:13:17;;;;;;;13.80;5.93;;;;;;;12.69;57.30;96645.88;5008461;28;20492;-87
2022/10/05 07:15:57;;;;;;;7.20;5.50;;;;;;;12.91;57.22;96649.00;5009488;28;20033;-88
2022/10/05 07:18:48;;;;;;;15.77;5.32;;;;;;;13.05;57.09;96650.22;5008185;28;20025;-89
2022/10/05 07:21:33;;;;;;;9.80;5.88;;;;;;;13.29;56.58;96652.16;4991049;28;20026;-85
2022/10/05 07:24:21;;;;;;;10.95;5.90;;;;;;;13.08;56.98;96655.28;5008697;28;20073;-87
2022/10/05 07:26:54;;;;;;;7.50;5.22;;;;;;;12.86;57.48;96653.00;5008093;28;20112;-88
2022/10/05 07:29:36;;;;;;;8.25;5.55;;;;;;;12.91;57.65;96649.00;4975408;28;20026;-87
2022/10/05 07:32:10;;;;;;;10.68;5.65;;;;;;;12.54;59.14;96648.31;4974403;28;20034;-90
2022/10/05 07:34:43;;;;;;;11.70;6.03;;;;;;;12.58;59.41;96644.31;4991033;28;20087;-87
2022/10/05 07:40:36;;;;;;;7.78;5.13;;;;;;;13.16;58.60;96641.00;4980289;28;20041;-89
2022/10/05 07:43:18;;;;;;;7.93;5.18;;;;;;;12.79;59.15;96629.59;5004650;28;20038;-87
2022/10/05 07:45:51;;;;;;;6.88;4.88;;;;;;;12.89;58.95;96635.72;4991301;28;20040;-87
2022/10/05 07:48:20;;;;;;;10.63;5.05;;;;;;;13.38;57.85;96638.72;4973714;28;20033;-88
2022/10/05 07:51:02;;;;;;;8.52;5.25;;;;;;;13.22;58.54;96643.91;4990815;28;20025;-88
2022/10/05 07:53:36;;;;;;;7.95;4.90;;;;;;;13.28;58.09;96647.81;5007728;28;20087;-87
2022/10/05 07:56:17;;;;;;;6.82;5.07;;;;;;;13.19;58.62;96646.06;4974065;28;20092;-87
2022/10/05 07:58:43;;;;;;;6.28;4.60;;;;;;;13.59;58.01;96641.81;4991121;28;20029;-87
2022/10/05 08:01:18;;;;;;;6.32;4.60;;;;;;;13.69;57.35;96646.19;4973459;28;20492;-89
2022/10/05 08:04:04;;;;;;;8.32;4.90;;;;;;;13.59;57.49;96654.44;4991504;28;20087;-86
2022/10/05 08:06:36;;;;;;;6.70;4.60;;;;;;;14.01;56.61;96660.72;4958292;28;20026;-89
2022/10/05 08:09:30;;;;;;;6.78;4.70;;;;;;;13.84;56.46;96659.88;5007616;28;20141;-88
2022/10/05 08:12:01;;;;;;;6.45;5.05;;;;;;;13.64;56.74;96664.75;4979273;28;20061;-87
2022/10/05 08:14:32;;;;;;;8.88;4.35;;;;;;;13.01;58.33;96657.78;4989595;28;20117;-87
2022/10/05 08:17:01;;;;;;;10.43;5.13;;;;;;;13.16;58.55;96655.31;4990568;28;20038;-87
2022/10/05 08:19:47;;;;;;;5.32;4.28;;;;;;;13.58;56.75;96653.63;4976293;28;20030;-88
2022/10/05 08:22:25;;;;;;;8.55;3.95;;;;;;;13.40;57.38;96658.25;4974264;28;20061;-86
2022/10/05 08:24:57;;;;;;;5.65;3.70;;;;;;;13.46;57.17;96652.22;4975638;28;20036;-87
2022/10/05 08:27:29;;;;;;;;;;;;;;;13.40;56.65;96663.63;4973811;28;20033;-87
2022/10/05 08:30:00;;;;;;;6.70;3.50;;;;;;;13.23;56.26;96656.34;5008026;28;19913;-87
2022/10/05 08:33:03;;;;;;;4.07;2.67;;;;;;;13.55;54.09;96661.19;4973765;28;20100;-87
2022/10/05 08:35:42;;;;;;;8.45;2.80;;;;;;;13.96;52.62;96653.13;4988926;28;20415;-88
2022/10/05 08:38:11;;;;;;;5.90;2.65;;;;;;;13.90;52.16;96656.50;4973904;28;20126;-88
2022/10/05 08:41:06;;;;;;;6.32;2.65;;;;;;;14.09;51.44;96651.78;5006905;28;20103;-86
2022/10/05 08:44:08;;;;;;;3.55;2.80;;;;;;;14.24;52.05;96653.78;5006984;28;20050;-89
2022/10/05 08:46:54;;;;;;;5.05;2.70;;;;;;;14.45;52.41;96646.00;5007483;28;20586;-89
2022/10/05 08:49:50;;;;;;;3.97;2.65;;;;;;;14.50;51.58;96645.50;5006665;28;20126;-87
2022/10/05 08:52:22;;;;;;;4.53;2.90;;;;;;;14.63;50.43;96650.38;5006865;28;20033;-87
2022/10/05 08:55:19;;;;;;;3.92;2.70;;;;;;;14.58;50.40;96645.47;5007512;28;20101;-87
2022/10/05 08:58:11;;;;;;;4.13;2.63;;;;;;;14.67;49.57;96640.88;5006483;28;20060;-89
2022/10/05 09:01:08;;;;;;;4.82;2.90;;;;;;;14.42;49.28;96642.81;4974175;28;20080;-88
2022/10/05 09:04:01;;;;;;;3.92;2.30;;;;;;;14.47;49.71;96640.44;5007600;28;20038;-89
2022/10/05 09:06:45;;;;;;;;;;;;;;;14.16;49.99;96647.41;5006902;28;20032;-87
2022/10/05 09:09:32;;;;;;;4.35;2.13;;;;;;;13.81;50.34;96647.59;5007336;28;20295;-86
2022/10/05 09:12:35;;;;;;;4.05;1.73;;;;;;;13.81;50.22;96644.88;5007242;28;20030;-88
2022/10/05 09:15:18;;;;;;;3.47;1.85;;;;;;;14.24;49.26;96643.00;5007218;28;20365;-88
2022/10/05 09:18:11;;;;;;;4.82;2.17;;;;;;;15.02;48.54;96645.19;5006978;28;20046;-88
2022/10/05 09:20:52;;;;;;;;;;;;;;;15.07;46.88;96654.44;5007716;28;20578;-91
2022/10/05 09:23:39;;;;;;;3.20;1.85;;;;;;;15.03;45.78;96642.31;5006452;28;20300;-86
2022/10/05 09:26:38;;;;;;;5.18;1.98;;;;;;;15.16;46.68;96647.16;5007151;28;20104;-86
2022/10/05 09:29:19;;;;;;;5.10;1.98;;;;;;;15.12;47.82;96642.28;4989008;28;20037;-86
2022/10/05 09:32:07;;;;;;;6.30;2.20;;;;;;;15.14;48.30;96637.53;5005949;28;20030;-87
2022/10/05 09:34:54;;;;;;;2.60;1.67;;;;;;;15.41;45.59;96640.78;4964724;28;20049;-87
2022/10/05 09:38:03;;;;;;;3.85;1.80;;;;;;;15.47;45.82;96647.34;5010579;28;20030;-86
2022/10/05 09:40:40;;;;;;;6.10;3.13;;;;;;;15.61;44.55;96637.59;5009256;28;20045;-88
2022/10/05 09:43:47;;;;;;;4.38;2.10;;;;;;;15.47;45.01;96641.94;5010962;28;20044;-88
2022/10/05 09:46:37;;;;;;;4.13;1.70;;;;;;;15.27;45.28;96642.38;4993218;28;20072;-88
2022/10/05 09:49:27;;;;;;;3.67;2.00;;;;;;;14.99;46.52;96634.75;4994986;28;20042;-88
2022/10/05 09:52:04;;;;;;;4.53;2.25;;;;;;;14.98;46.44;96633.91;5010755;28;20030;-87
2022/10/05 09:54:45;;;;;;;4.68;1.92;;;;;;;15.09;46.35;96638.06;4992753;28;20026;-88
2022/10/05 09:57:29;;;;;;;5.03;1.85;;;;;;;15.67;47.94;96632.31;5010337;28;20097;-88
2022/10/05 10:00:23;;;;;;;4.65;2.28;;;;;;;15.85;44.34;96633.88;5012154;28;20030;-87
2022/10/05 10:02:51;;;;;;;3.85;2.20;;;;;;;15.76;45.62;96626.88;4991884;28;20030;-86
2022/10/05 10:05:30;;;;;;;6.30;2.10;;;;;;;15.89;45.09;96637.94;5010306;28;20030;-85
2022/10/05 10:08:28;;;;;;;2.95;1.70;;;;;;;16.14;47.30;96631.47;4992210;28;20037;-87
2022/10/05 10:11:15;;;;;;;3.97;1.80;;;;;;;15.96;45.66;96640.72;4946483;28;20453;-89
2022/10/05 10:14:17;;;;;;;3.92;2.08;;;;;;;15.62;45.52;96640.13;5015003;28;20030;-86
2022/10/05 10:16:53;;;;;;;3.13;2.10;;;;;;;15.72;45.95;96639.91;5011397;28;20033;-86
2022/10/05 10:19:33;;;;;;;3.17;2.08;;;;;;;15.75;45.67;96634.13;4992384;28;20036;-85
2022/10/05 10:22:36;;;;;;;4.03;2.40;;;;;;;15.36;45.47;96629.66;5009849;28;20113;-86
2022/10/05 10:25:33;;;;;;;3.58;1.73;;;;;;;14.91;45.93;96628.34;5009040;28;20489;-87
2022/10/05 10:28:19;;;;;;;3.55;1.60;;;;;;;15.32;45.56;96629.16;5008869;28;20088;-87
2022/10/05 10:30:55;;;;;;;4.78;2.00;;;;;;;15.29;45.10;96630.38;5009820;28;20092;-87
2022/10/05 10:33:35;;;;;;;2.08;1.42;;;;;;;15.37;43.45;96618.69;4976119;28;20440;-87
2022/10/05 10:36:37;;;;;;;2.17;1.48;;;;;;;15.33;43.82;96620.06;5009160;28;20132;-85
2022/10/05 10:39:19;;;;;;;2.20;1.42;;;;;;;15.20;44.37;96618.75;5009658;28;20030;-88
2022/10/05 10:42:07;;;;;;;3.50;1.67;;;;;;;15.60;45.01;96614.31;4991372;28;20034;-87
2022/10/05 10:44:58;;;;;;;3.97;1.83;;;;;;;15.80;43.53;96607.38;4976949;28;20046;-86
2022/10/05 10:47:45;;;;;;;3.47;2.03;;;;;;;16.03;43.49;96617.38;4976635;28;20034;-87
2022/10/05 10:50:39;;;;;;;3.13;1.90;;;;;;;15.94;43.04;96611.16;5008656;28;20564;-88
2022/10/05 10:53:10;;;;;;;;;;;;;;;16.27;43.63;96603.78;5009639;28;20058;-87
2022/10/05 10:55:58;;;;;;;2.92;1.50;;;;;;;16.55;43.60;96603.19;5008947;28;19928;-88
2022/10/05 10:58:41;;;;;;;2.15;1.30;;;;;;;16.78;42.85;96604.97;4960390;28;20580;-87
2022/10/05 11:01:15;;;;;;;2.90;1.50;;;;;;;17.03;40.24;96591.94;4993934;28;20060;-88
2022/10/05 11:04:14;;;;;;;6.55;1.33;;;;;;;17.03;40.68;96586.53;5011609;28;20041;-86
2022/10/05 11:06:54;;;;;;;3.00;1.30;;;;;;;16.87;39.59;96586.72;4994045;28;20113;-88
2022/10/05 11:09:38;;;;;;;5.07;1.50;;;;;;;16.97;41.26;96581.00;4994275;28;20109;-87
2022/10/05 11:12:30;;;;;;;6.43;1.40;;;;;;;16.96;40.12;96576.63;4994290;28;20025;-86
2022/10/05 11:15:32;;;;;;;2.88;1.30;;;;;;;16.83;38.80;96570.00;4969550;28;20520;-87
2022/10/05 11:18:32;;;;;;;3.60;1.48;;;;;;;16.68;39.64;96557.31;5009263;28;20034;-86
2022/10/05 11:20:57;;;;;;;4.28;1.65;;;;;;;16.70;39.56;96559.84;5008273;28;20030;-87
2022/10/05 11:23:25;;;;;;;2.05;1.17;;;;;;;16.86;38.16;96557.97;5008821;28;20532;-88
2022/10/05 11:26:26;;;;;;;2.63;1.30;;;;;;;16.64;38.89;96556.00;5008172;28;20099;-87
2022/10/05 11:29:22;;;;;;;1.70;1.08;;;;;;;16.58;38.86;96562.19;4954014;28;20121;-88
2022/10/05 11:31:57;;;;;;;4.05;2.10;;;;;;;17.02;39.21;96556.91;5008370;28;20096;-87
2022/10/05 11:34:55;;;;;;;1.90;1.00;;;;;;;17.10;37.77;96554.13;4990391;28;20030;-89
2022/10/05 11:38:06;;;;;;;2.80;1.10;;;;;;;17.55;39.87;96550.41;4989980;28;20026;-87
2022/10/05 11:40:49;;;;;;;2.78;1.20;;;;;;;17.76;37.27;96541.41;5008302;28;20018;-87
2022/10/05 11:43:39;;;;;;;1.88;1.05;;;;;;;17.90;37.68;96547.78;5007727;28;20510;-89
2022/10/05 11:46:13;;;;;;;1.75;0.90;;;;;;;18.07;36.81;96546.66;5007746;28;20485;-88
2022/10/05 11:49:01;;;;;;;3.28;1.27;;;;;;;18.26;35.63;96545.16;5008582;28;20061;-86
2022/10/05 11:51:48;;;;;;;3.65;1.25;;;;;;;18.21;34.77;96547.63;4961902;28;20044;-88
2022/10/05 11:54:36;;;;;;;4.15;1.30;;;;;;;18.24;35.98;96533.63;5007644;28;20515;-89
2022/10/05 11:57:09;;;;;;;3.88;1.10;;;;;;;18.32;35.05;96527.22;4992015;28;20034;-89
2022/10/05 11:59:57;;;;;;;2.88;1.35;;;;;;;18.19;35.91;96514.38;4989643;28;20060;-88
2022/10/05 12:02:51;;;;;;;3.08;0.90;;;;;;;18.13;35.83;96524.19;4992773;28;20395;-88
2022/10/05 12:05:31;;;;;;;1.83;1.00;;;;;;;18.12;36.40;96519.78;5008773;28;20054;-88
2022/10/05 12:08:07;;;;;;;1.73;1.05;;;;;;;18.33;35.77;96513.44;5007646;28;20033;-90
2022/10/05 12:10:58;;;;;;;3.70;1.20;;;;;;;18.28;35.87;96511.31;4958821;28;20448;-89
2022/10/05 12:13:32;;;;;;;2.42;1.10;;;;;;;18.08;35.75;96522.03;4992314;28;20496;-90
2022/10/05 12:16:03;;;;;;;4.53;1.40;;;;;;;17.97;36.21;96528.00;4990191;28;20874;-89
2022/10/05 12:18:32;;;;;;;2.33;1.30;;;;;;;17.97;37.15;96517.13;4990872;28;20021;-89
2022/10/05 12:21:05;;;;;;;2.97;0.95;;;;;;;17.90;36.29;96517.09;5007638;28;20022;-89
2022/10/05 12:23:42;;;;;;;1.98;0.98;;;;;;;17.86;35.87;96519.34;4975199;28;20030;-88
2022/10/05 12:26:30;;;;;;;5.50;1.00;;;;;;;17.98;34.89;96516.94;4974867;28;20515;-88
2022/10/05 12:29:07;;;;;;;4.20;1.00;;;;;;;17.99;35.36;96520.50;4976725;28;20061;-88
2022/10/05 12:32:03;;;;;;;2.95;1.00;;;;;;;18.59;34.15;96519.19;4990794;28;20101;-87
2022/10/05 12:35:06;;;;;;;2.38;0.90;;;;;;;18.85;34.11;96514.94;4989269;28;20104;-88
2022/10/05 12:37:57;;;;;;;6.05;1.50;;;;;;;18.85;34.99;96518.50;5007187;28;20076;-89
2022/10/05 12:40:44;;;;;;;2.90;1.30;;;;;;;19.01;34.00;96513.72;4992832;28;20025;-87
2022/10/05 12:43:31;;;;;;;3.30;1.40;;;;;;;19.37;36.39;96509.91;4973240;28;20038;-88
2022/10/05 12:46:16;;;;;;;2.85;1.23;;;;;;;19.18;33.58;96513.41;4973500;28;20448;-87
2022/10/05 12:48:56;;;;;;;3.35;0.95;;;;;;;18.74;33.79;96524.50;5007354;28;20026;-89